sensor_id;sensor_type;location;lat;lon;timestamp;temperature;humidity
25328;DHT22;13279;51.300;12.394;2022-07-06T03:16:31;16.40;1.00
25328;DHT22;13279;51.300;12.394;2022-07-06T03:18:59;16.40;1.00
25328;DHT22;13279;51.300;12.394;2022-07-06T03:21:26;16.40;1.00
25328;DHT22;13279;51.300;12.394;2022-07-06T03:23:54;16.40;1.00
25328;DHT22;13279;51.300;12.394;2022-07-06T03:26:22;16.40;1.00
25328;DHT22;13279;51.300;12.394;2022-07-06T03:28:50;16.40;1.00
25328;DHT22;13279;51.300;12.394;2022-07-06T03:31:18;16.30;1.00
25328;DHT22;13279;51.300;12.394;2022-07-06T03:33:48;16.30;1.00
25328;DHT22;13279;51.300;12.394;2022-07-06T03:36:16;16.30;1.00
25328;DHT22;13279;51.300;12.394;2022-07-06T03:38:44;16.20;1.00
25328;DHT22;13279;51.300;12.394;2022-07-06T03:41:11;16.30;1.00
25328;DHT22;13279;51.300;12.394;2022-07-06T03:43:39;16.20;1.00
25328;DHT22;13279;51.300;12.394;2022-07-06T03:46:08;16.20;1.00
25328;DHT22;13279;51.300;12.394;2022-07-06T03:48:35;16.20;1.00
25328;DHT22;13279;51.300;12.394;2022-07-06T03:51:06;16.20;1.00
25328;DHT22;13279;51.300;12.394;2022-07-06T03:53:34;16.20;1.00
25328;DHT22;13279;51.300;12.394;2022-07-06T03:56:02;16.20;1.00
25328;DHT22;13279;51.300;12.394;2022-07-06T04:02:36;16.30;1.00
25328;DHT22;13279;51.300;12.394;2022-07-06T04:05:05;16.30;1.00
25328;DHT22;13279;51.300;12.394;2022-07-06T04:07:35;16.40;1.00
25328;DHT22;13279;51.300;12.394;2022-07-06T04:10:03;16.40;1.00
25328;DHT22;13279;51.300;12.394;2022-07-06T04:12:31;16.40;1.00
25328;DHT22;13279;51.300;12.394;2022-07-06T04:14:59;16.40;1.00
25328;DHT22;13279;51.300;12.394;2022-07-06T04:17:27;16.40;1.00
25328;DHT22;13279;51.300;12.394;2022-07-06T04:20:12;16.50;1.00
25328;DHT22;13279;51.300;12.394;2022-07-06T04:22:41;16.50;1.00
25328;DHT22;13279;51.300;12.394;2022-07-06T04:25:08;16.50;1.00
25328;DHT22;13279;51.300;12.394;2022-07-06T04:27:37;16.50;1.00
25328;DHT22;13279;51.300;12.394;2022-07-06T04:30:06;16.50;1.00
25328;DHT22;13279;51.300;12.394;2022-07-06T04:32:34;16.50;1.00
25328;DHT22;13279;51.300;12.394;2022-07-06T04:35:04;16.50;1.00
25328;DHT22;13279;51.300;12.394;2022-07-06T04:37:31;16.50;1.00
25328;DHT22;13279;51.300;12.394;2022-07-06T04:40:01;16.50;1.00
25328;DHT22;13279;51.300;12.394;2022-07-06T04:42:30;16.50;1.00
25328;DHT22;13279;51.300;12.394;2022-07-06T04:44:58;16.60;1.00
25328;DHT22;13279;51.300;12.394;2022-07-06T04:47:26;16.60;1.00
25328;DHT22;13279;51.300;12.394;2022-07-06T04:49:56;16.60;1.00
25328;DHT22;13279;51.300;12.394;2022-07-06T04:52:24;16.60;1.00
25328;DHT22;13279;51.300;12.394;2022-07-06T04:54:51;16.60;1.00
25328;DHT22;13279;51.300;12.394;2022-07-06T04:57:21;16.60;1.00
25328;DHT22;13279;51.300;12.394;2022-07-06T04:59:49;16.50;1.00
25328;DHT22;13279;51.300;12.394;2022-07-06T05:02:17;16.40;1.00
25328;DHT22;13279;51.300;12.394;2022-07-06T05:04:45;16.40;1.00
25328;DHT22;13279;51.300;12.394;2022-07-06T05:07:13;16.40;1.00
25328;DHT22;13279;51.300;12.394;2022-07-06T05:09:40;16.50;1.00
25328;DHT22;13279;51.300;12.394;2022-07-06T05:12:09;16.40;1.00
25328;DHT22;13279;51.300;12.394;2022-07-06T05:14:38;16.50;1.00
25328;DHT22;13279;51.300;12.394;2022-07-06T05:17:07;16.50;1.00
25328;DHT22;13279;51.300;12.394;2022-07-06T05:19:35;16.60;1.00
25328;DHT22;13279;51.300;12.394;2022-07-06T05:22:02;16.60;1.00
25328;DHT22;13279;51.300;12.394;2022-07-06T05:24:30;16.70;1.00
25328;DHT22;13279;51.300;12.394;2022-07-06T05:26:58;16.70;1.00
25328;DHT22;13279;51.300;12.394;2022-07-06T05:29:26;16.90;1.00
25328;DHT22;13279;51.300;12.394;2022-07-06T05:31:55;17.20;1.00
25328;DHT22;13279;51.300;12.394;2022-07-06T05:34:23;17.30;1.00
25328;DHT22;13279;51.300;12.394;2022-07-06T05:36:50;17.20;1.00
25328;DHT22;13279;51.300;12.394;2022-07-06T05:39:18;17.10;1.00
25328;DHT22;13279;51.300;12.394;2022-07-06T05:41:49;17.10;1.00
25328;DHT22;13279;51.300;12.394;2022-07-06T05:44:19;17.10;1.00
25328;DHT22;13279;51.300;12.394;2022-07-06T05:46:46;17.00;1.00
25328;DHT22;13279;51.300;12.394;2022-07-06T05:49:17;16.90;1.00
25328;DHT22;13279;51.300;12.394;2022-07-06T05:52:02;16.90;1.00
25328;DHT22;13279;51.300;12.394;2022-07-06T05:54:31;16.90;1.00
25328;DHT22;13279;51.300;12.394;2022-07-06T05:56:59;16.90;1.00
25328;DHT22;13279;51.300;12.394;2022-07-06T05:59:27;16.90;1.00
25328;DHT22;13279;51.300;12.394;2022-07-06T06:01:56;16.90;1.00
25328;DHT22;13279;51.300;12.394;2022-07-06T06:04:25;17.00;1.00
25328;DHT22;13279;51.300;12.394;2022-07-06T06:06:53;17.10;1.00
25328;DHT22;13279;51.300;12.394;2022-07-06T06:09:21;17.00;1.00
25328;DHT22;13279;51.300;12.394;2022-07-06T06:11:48;17.10;1.00
25328;DHT22;13279;51.300;12.394;2022-07-06T06:14:16;17.10;1.00
25328;DHT22;13279;51.300;12.394;2022-07-06T06:16:43;17.20;1.00
25328;DHT22;13279;51.300;12.394;2022-07-06T06:19:11;17.10;1.00
25328;DHT22;13279;51.300;12.394;2022-07-06T06:21:40;17.10;1.00
25328;DHT22;13279;51.300;12.394;2022-07-06T06:24:08;17.20;1.00
25328;DHT22;13279;51.300;12.394;2022-07-06T06:26:35;17.30;1.00
25328;DHT22;13279;51.300;12.394;2022-07-06T06:29:03;17.30;1.00
25328;DHT22;13279;51.300;12.394;2022-07-06T06:31:30;17.50;1.00
25328;DHT22;13279;51.300;12.394;2022-07-06T06:33:58;17.70;1.00
25328;DHT22;13279;51.300;12.394;2022-07-06T06:36:25;18.00;1.00
25328;DHT22;13279;51.300;12.394;2022-07-06T06:38:54;18.20;1.00
25328;DHT22;13279;51.300;12.394;2022-07-06T06:41:22;18.30;1.00
25328;DHT22;13279;51.300;12.394;2022-07-06T06:43:50;18.40;1.00
25328;DHT22;13279;51.300;12.394;2022-07-06T06:46:21;18.40;1.00
25328;DHT22;13279;51.300;12.394;2022-07-06T06:48:49;18.30;99.90
25328;DHT22;13279;51.300;12.394;2022-07-06T06:51:17;18.20;99.90
25328;DHT22;13279;51.300;12.394;2022-07-06T06:53:45;18.10;99.90
25328;DHT22;13279;51.300;12.394;2022-07-06T06:56:13;18.00;99.90
25328;DHT22;13279;51.300;12.394;2022-07-06T06:58:41;18.10;99.90
25328;DHT22;13279;51.300;12.394;2022-07-06T07:01:09;18.30;99.90
25328;DHT22;13279;51.300;12.394;2022-07-06T07:03:37;18.40;99.90
25328;DHT22;13279;51.300;12.394;2022-07-06T07:06:04;18.60;99.90
25328;DHT22;13279;51.300;12.394;2022-07-06T07:08:32;18.70;99.90
25328;DHT22;13279;51.300;12.394;2022-07-06T07:10:59;18.80;99.90
25328;DHT22;13279;51.300;12.394;2022-07-06T07:13:28;18.80;99.90
25328;DHT22;13279;51.300;12.394;2022-07-06T07:15:56;18.60;99.90
25328;DHT22;13279;51.300;12.394;2022-07-06T07:18:23;18.50;1.00
25328;DHT22;13279;51.300;12.394;2022-07-06T07:20:50;18.40;1.00
25328;DHT22;13279;51.300;12.394;2022-07-06T07:23:18;18.50;1.00
25328;DHT22;13279;51.300;12.394;2022-07-06T07:25:45;18.70;1.00
25328;DHT22;13279;51.300;12.394;2022-07-06T07:28:12;19.20;99.90
25328;DHT22;13279;51.300;12.394;2022-07-06T07:30:41;19.70;99.90
25328;DHT22;13279;51.300;12.394;2022-07-06T07:33:09;19.80;99.90
25328;DHT22;13279;51.300;12.394;2022-07-06T07:35:37;19.90;99.90
25328;DHT22;13279;51.300;12.394;2022-07-06T07:38:04;19.70;99.90
25328;DHT22;13279;51.300;12.394;2022-07-06T07:40:32;19.70;99.90
25328;DHT22;13279;51.300;12.394;2022-07-06T07:43:01;19.60;99.90
25328;DHT22;13279;51.300;12.394;2022-07-06T07:45:28;19.60;51.10
25328;DHT22;13279;51.300;12.394;2022-07-06T07:47:57;19.60;92.40
25328;DHT22;13279;51.300;12.394;2022-07-06T07:50:25;19.40;76.10
25328;DHT22;13279;51.300;12.394;2022-07-06T07:52:52;19.50;99.90
25328;DHT22;13279;51.300;12.394;2022-07-06T07:55:19;19.80;99.90
25328;DHT22;13279;51.300;12.394;2022-07-06T07:57:47;20.00;85.70
25328;DHT22;13279;51.300;12.394;2022-07-06T08:00:15;20.30;93.90
25328;DHT22;13279;51.300;12.394;2022-07-06T08:02:44;20.40;22.10
25328;DHT22;13279;51.300;12.394;2022-07-06T08:05:12;20.70;1.00
25328;DHT22;13279;51.300;12.394;2022-07-06T08:07:42;20.70;1.00
25328;DHT22;13279;51.300;12.394;2022-07-06T08:10:10;20.70;1.00
25328;DHT22;13279;51.300;12.394;2022-07-06T08:12:37;20.80;1.00
25328;DHT22;13279;51.300;12.394;2022-07-06T08:15:06;20.50;1.00
25328;DHT22;13279;51.300;12.394;2022-07-06T08:17:33;20.30;1.00
25328;DHT22;13279;51.300;12.394;2022-07-06T08:20:01;20.30;1.00
25328;DHT22;13279;51.300;12.394;2022-07-06T08:22:30;20.40;1.00
25328;DHT22;13279;51.300;12.394;2022-07-06T08:24:57;20.50;1.00
25328;DHT22;13279;51.300;12.394;2022-07-06T08:27:25;20.40;1.00
25328;DHT22;13279;51.300;12.394;2022-07-06T08:29:52;20.40;1.00
25328;DHT22;13279;51.300;12.394;2022-07-06T08:32:22;20.10;1.00
25328;DHT22;13279;51.300;12.394;2022-07-06T08:34:52;19.90;1.00
25328;DHT22;13279;51.300;12.394;2022-07-06T08:37:20;19.80;1.00
25328;DHT22;13279;51.300;12.394;2022-07-06T08:39:49;19.70;1.00
25328;DHT22;13279;51.300;12.394;2022-07-06T08:42:17;19.80;1.00
25328;DHT22;13279;51.300;12.394;2022-07-06T08:44:45;20.20;1.00
25328;DHT22;13279;51.300;12.394;2022-07-06T08:47:14;20.50;1.00
25328;DHT22;13279;51.300;12.394;2022-07-06T08:49:45;20.80;1.00
25328;DHT22;13279;51.300;12.394;2022-07-06T08:52:14;20.50;1.00
25328;DHT22;13279;51.300;12.394;2022-07-06T08:54:41;20.30;1.00
25328;DHT22;13279;51.300;12.394;2022-07-06T08:57:10;20.00;1.00
25328;DHT22;13279;51.300;12.394;2022-07-06T08:59:41;19.90;1.00
25328;DHT22;13279;51.300;12.394;2022-07-06T09:02:10;20.20;1.00
25328;DHT22;13279;51.300;12.394;2022-07-06T09:04:38;20.70;1.00
25328;DHT22;13279;51.300;12.394;2022-07-06T09:07:06;21.10;99.90
25328;DHT22;13279;51.300;12.394;2022-07-06T09:09:35;21.30;99.90
25328;DHT22;13279;51.300;12.394;2022-07-06T09:12:04;21.10;23.30
25328;DHT22;13279;51.300;12.394;2022-07-06T09:14:37;21.20;1.00
25328;DHT22;13279;51.300;12.394;2022-07-06T09:17:05;21.10;1.00
25328;DHT22;13279;51.300;12.394;2022-07-06T09:19:34;21.20;1.00
25328;DHT22;13279;51.300;12.394;2022-07-06T09:22:03;21.20;1.00
25328;DHT22;13279;51.300;12.394;2022-07-06T09:24:30;21.40;1.00
25328;DHT22;13279;51.300;12.394;2022-07-06T09:26:59;21.80;1.00
25328;DHT22;13279;51.300;12.394;2022-07-06T09:29:28;22.00;1.00
25328;DHT22;13279;51.300;12.394;2022-07-06T09:31:58;22.30;1.00
25328;DHT22;13279;51.300;12.394;2022-07-06T09:34:40;22.40;99.90
25328;DHT22;13279;51.300;12.394;2022-07-06T09:37:08;22.10;42.20
25328;DHT22;13279;51.300;12.394;2022-07-06T09:39:36;21.70;99.90
25328;DHT22;13279;51.300;12.394;2022-07-06T09:42:05;21.50;99.90
25328;DHT22;13279;51.300;12.394;2022-07-06T09:44:35;21.40;99.90
25328;DHT22;13279;51.300;12.394;2022-07-06T09:47:06;21.30;99.90
25328;DHT22;13279;51.300;12.394;2022-07-06T09:49:34;21.20;99.90
25328;DHT22;13279;51.300;12.394;2022-07-06T09:52:03;21.40;99.90
25328;DHT22;13279;51.300;12.394;2022-07-06T09:54:33;21.80;99.90
25328;DHT22;13279;51.300;12.394;2022-07-06T09:57:01;21.90;19.30
25328;DHT22;13279;51.300;12.394;2022-07-06T09:59:30;21.90;1.00
25328;DHT22;13279;51.300;12.394;2022-07-06T10:01:59;21.70;1.00
25328;DHT22;13279;51.300;12.394;2022-07-06T10:04:29;21.70;1.00
25328;DHT22;13279;51.300;12.394;2022-07-06T10:06:58;21.70;1.00
25328;DHT22;13279;51.300;12.394;2022-07-06T10:09:27;21.70;1.00
25328;DHT22;13279;51.300;12.394;2022-07-06T10:11:58;22.10;1.00
25328;DHT22;13279;51.300;12.394;2022-07-06T10:14:28;22.30;1.00
25328;DHT22;13279;51.300;12.394;2022-07-06T10:16:56;22.20;1.00
25328;DHT22;13279;51.300;12.394;2022-07-06T10:19:26;22.10;99.90
25328;DHT22;13279;51.300;12.394;2022-07-06T10:21:56;22.40;1.00
25328;DHT22;13279;51.300;12.394;2022-07-06T10:24:27;22.40;99.90
25328;DHT22;13279;51.300;12.394;2022-07-06T10:26:55;22.30;99.90
25328;DHT22;13279;51.300;12.394;2022-07-06T10:29:24;22.10;99.90
25328;DHT22;13279;51.300;12.394;2022-07-06T10:31:54;21.80;99.90
25328;DHT22;13279;51.300;12.394;2022-07-06T10:34:23;21.80;99.90
25328;DHT22;13279;51.300;12.394;2022-07-06T10:36:52;22.00;99.90
25328;DHT22;13279;51.300;12.394;2022-07-06T10:39:35;22.10;99.90
25328;DHT22;13279;51.300;12.394;2022-07-06T10:42:38;22.30;99.90
25328;DHT22;13279;51.300;12.394;2022-07-06T10:45:07;22.70;59.40
25328;DHT22;13279;51.300;12.394;2022-07-06T10:47:35;22.90;1.00
25328;DHT22;13279;51.300;12.394;2022-07-06T10:50:03;22.70;1.00
25328;DHT22;13279;51.300;12.394;2022-07-06T10:52:51;22.70;1.00
25328;DHT22;13279;51.300;12.394;2022-07-06T10:55:31;22.80;1.00
25328;DHT22;13279;51.300;12.394;2022-07-06T10:57:59;22.60;1.00
25328;DHT22;13279;51.300;12.394;2022-07-06T11:00:47;22.30;1.00
25328;DHT22;13279;51.300;12.394;2022-07-06T11:03:32;22.10;1.00
25328;DHT22;13279;51.300;12.394;2022-07-06T11:06:00;22.20;1.00
25328;DHT22;13279;51.300;12.394;2022-07-06T11:08:49;22.50;1.00
25328;DHT22;13279;51.300;12.394;2022-07-06T11:11:20;22.70;1.00
25328;DHT22;13279;51.300;12.394;2022-07-06T11:13:50;23.00;1.00
25328;DHT22;13279;51.300;12.394;2022-07-06T11:16:19;22.90;1.00
25328;DHT22;13279;51.300;12.394;2022-07-06T11:18:48;23.00;1.00
25328;DHT22;13279;51.300;12.394;2022-07-06T11:21:18;23.30;99.90
25328;DHT22;13279;51.300;12.394;2022-07-06T11:23:47;23.30;99.90
25328;DHT22;13279;51.300;12.394;2022-07-06T11:26:15;23.20;99.90
25328;DHT22;13279;51.300;12.394;2022-07-06T11:28:46;22.90;99.90
25328;DHT22;13279;51.300;12.394;2022-07-06T11:31:15;22.40;99.90
25328;DHT22;13279;51.300;12.394;2022-07-06T11:33:45;22.10;99.90
25328;DHT22;13279;51.300;12.394;2022-07-06T11:36:14;22.00;99.90
25328;DHT22;13279;51.300;12.394;2022-07-06T11:38:43;22.10;99.90
25328;DHT22;13279;51.300;12.394;2022-07-06T11:41:11;22.30;99.90
25328;DHT22;13279;51.300;12.394;2022-07-06T11:43:41;22.60;99.90
25328;DHT22;13279;51.300;12.394;2022-07-06T11:46:21;22.90;99.90
25328;DHT22;13279;51.300;12.394;2022-07-06T11:48:50;23.30;99.90
25328;DHT22;13279;51.300;12.394;2022-07-06T11:51:18;23.40;1.00
25328;DHT22;13279;51.300;12.394;2022-07-06T11:53:47;23.60;97.40
25328;DHT22;13279;51.300;12.394;2022-07-06T11:56:15;23.80;1.00
25328;DHT22;13279;51.300;12.394;2022-07-06T11:58:45;23.30;1.00
25328;DHT22;13279;51.300;12.394;2022-07-06T12:01:14;22.80;1.00
25328;DHT22;13279;51.300;12.394;2022-07-06T12:03:44;22.70;1.00
25328;DHT22;13279;51.300;12.394;2022-07-06T12:06:17;22.60;1.00
25328;DHT22;13279;51.300;12.394;2022-07-06T12:08:47;22.40;1.00
25328;DHT22;13279;51.300;12.394;2022-07-06T12:11:20;22.60;1.00
25328;DHT22;13279;51.300;12.394;2022-07-06T12:13:49;22.80;1.00
25328;DHT22;13279;51.300;12.394;2022-07-06T12:16:17;22.70;1.00
25328;DHT22;13279;51.300;12.394;2022-07-06T12:18:47;22.80;1.00
25328;DHT22;13279;51.300;12.394;2022-07-06T12:21:18;22.70;1.00
25328;DHT22;13279;51.300;12.394;2022-07-06T12:23:49;22.90;1.00
25328;DHT22;13279;51.300;12.394;2022-07-06T12:26:19;23.30;1.00
25328;DHT22;13279;51.300;12.394;2022-07-06T12:28:58;23.70;1.00
25328;DHT22;13279;51.300;12.394;2022-07-06T12:31:33;24.20;1.00
25328;DHT22;13279;51.300;12.394;2022-07-06T12:34:03;24.50;1.00
25328;DHT22;13279;51.300;12.394;2022-07-06T12:36:31;24.40;1.00
25328;DHT22;13279;51.300;12.394;2022-07-06T12:39:11;24.20;1.00
25328;DHT22;13279;51.300;12.394;2022-07-06T12:41:44;23.60;99.90
25328;DHT22;13279;51.300;12.394;2022-07-06T12:44:12;23.20;1.00
25328;DHT22;13279;51.300;12.394;2022-07-06T12:46:40;23.00;1.00
25328;DHT22;13279;51.300;12.394;2022-07-06T12:49:15;22.70;1.00
25328;DHT22;13279;51.300;12.394;2022-07-06T12:51:57;23.30;1.00
25328;DHT22;13279;51.300;12.394;2022-07-06T12:54:28;23.90;1.00
25328;DHT22;13279;51.300;12.394;2022-07-06T12:57:07;23.70;99.90
25328;DHT22;13279;51.300;12.394;2022-07-06T12:59:38;23.60;99.90
25328;DHT22;13279;51.300;12.394;2022-07-06T13:02:08;23.90;99.90
25328;DHT22;13279;51.300;12.394;2022-07-06T13:04:37;24.30;99.90
25328;DHT22;13279;51.300;12.394;2022-07-06T13:07:05;24.80;99.90
25328;DHT22;13279;51.300;12.394;2022-07-06T13:09:33;25.20;99.90
25328;DHT22;13279;51.300;12.394;2022-07-06T13:12:00;25.50;99.90
25328;DHT22;13279;51.300;12.394;2022-07-06T13:14:28;25.40;13.20
25328;DHT22;13279;51.300;12.394;2022-07-06T13:16:55;25.30;1.00
25328;DHT22;13279;51.300;12.394;2022-07-06T13:19:23;25.20;1.00
25328;DHT22;13279;51.300;12.394;2022-07-06T13:21:51;24.60;1.00
25328;DHT22;13279;51.300;12.394;2022-07-06T13:24:19;24.30;1.00
25328;DHT22;13279;51.300;12.394;2022-07-06T13:26:46;23.80;1.00
25328;DHT22;13279;51.300;12.394;2022-07-06T13:29:14;23.40;1.00
25328;DHT22;13279;51.300;12.394;2022-07-06T13:31:41;23.40;51.40
25328;DHT22;13279;51.300;12.394;2022-07-06T13:34:08;24.00;93.70
25328;DHT22;13279;51.300;12.394;2022-07-06T13:36:36;24.50;1.00
25328;DHT22;13279;51.300;12.394;2022-07-06T13:39:05;24.50;1.00
25328;DHT22;13279;51.300;12.394;2022-07-06T13:41:34;24.70;1.00
25328;DHT22;13279;51.300;12.394;2022-07-06T13:44:02;25.10;1.00
25328;DHT22;13279;51.300;12.394;2022-07-06T13:46:30;25.60;1.00
25328;DHT22;13279;51.300;12.394;2022-07-06T13:48:57;26.10;1.00
25328;DHT22;13279;51.300;12.394;2022-07-06T13:51:26;26.20;1.00
25328;DHT22;13279;51.300;12.394;2022-07-06T13:53:54;26.30;1.00
25328;DHT22;13279;51.300;12.394;2022-07-06T13:56:23;26.30;1.00
25328;DHT22;13279;51.300;12.394;2022-07-06T13:58:51;26.50;1.00
25328;DHT22;13279;51.300;12.394;2022-07-06T14:01:19;26.00;1.00
25328;DHT22;13279;51.300;12.394;2022-07-06T14:03:47;25.30;1.00
25328;DHT22;13279;51.300;12.394;2022-07-06T14:06:14;24.90;1.00
25328;DHT22;13279;51.300;12.394;2022-07-06T14:08:42;24.50;1.00
25328;DHT22;13279;51.300;12.394;2022-07-06T14:11:10;24.40;1.00
25328;DHT22;13279;51.300;12.394;2022-07-06T14:13:39;24.20;1.00
25328;DHT22;13279;51.300;12.394;2022-07-06T14:16:06;23.90;1.00
25328;DHT22;13279;51.300;12.394;2022-07-06T14:18:34;23.80;1.00
25328;DHT22;13279;51.300;12.394;2022-07-06T14:21:02;24.20;1.00
25328;DHT22;13279;51.300;12.394;2022-07-06T14:23:30;24.90;1.00
25328;DHT22;13279;51.300;12.394;2022-07-06T14:25:58;25.20;1.00
25328;DHT22;13279;51.300;12.394;2022-07-06T14:28:25;25.60;1.00
25328;DHT22;13279;51.300;12.394;2022-07-06T14:30:53;25.80;1.00
25328;DHT22;13279;51.300;12.394;2022-07-06T14:33:21;25.90;1.00
25328;DHT22;13279;51.300;12.394;2022-07-06T14:35:50;26.20;1.00
25328;DHT22;13279;51.300;12.394;2022-07-06T14:38:18;26.10;1.00
25328;DHT22;13279;51.300;12.394;2022-07-06T14:40:46;26.10;1.00
25328;DHT22;13279;51.300;12.394;2022-07-06T14:43:16;26.40;1.00
25328;DHT22;13279;51.300;12.394;2022-07-06T14:45:44;25.70;1.00
25328;DHT22;13279;51.300;12.394;2022-07-06T14:48:13;25.50;1.00
25328;DHT22;13279;51.300;12.394;2022-07-06T14:50:40;25.30;1.00
25328;DHT22;13279;51.300;12.394;2022-07-06T14:53:08;25.20;1.00
25328;DHT22;13279;51.300;12.394;2022-07-06T14:55:36;24.80;1.00
25328;DHT22;13279;51.300;12.394;2022-07-06T14:58:03;24.50;1.00
25328;DHT22;13279;51.300;12.394;2022-07-06T15:00:30;24.10;1.00
25328;DHT22;13279;51.300;12.394;2022-07-06T15:02:58;24.40;1.00
25328;DHT22;13279;51.300;12.394;2022-07-06T15:05:27;24.20;1.00
25328;DHT22;13279;51.300;12.394;2022-07-06T15:07:54;24.40;1.00
25328;DHT22;13279;51.300;12.394;2022-07-06T15:10:22;24.10;1.00
25328;DHT22;13279;51.300;12.394;2022-07-06T15:12:49;23.80;1.00
25328;DHT22;13279;51.300;12.394;2022-07-06T15:15:17;23.50;1.00
25328;DHT22;13279;51.300;12.394;2022-07-06T15:17:44;23.30;1.00
25328;DHT22;13279;51.300;12.394;2022-07-06T15:20:12;23.10;1.00
25328;DHT22;13279;51.300;12.394;2022-07-06T15:22:41;23.30;1.00
25328;DHT22;13279;51.300;12.394;2022-07-06T15:25:09;23.90;1.00
25328;DHT22;13279;51.300;12.394;2022-07-06T15:27:37;24.50;1.00
25328;DHT22;13279;51.300;12.394;2022-07-06T15:30:05;24.70;1.00
25328;DHT22;13279;51.300;12.394;2022-07-06T15:32:34;24.70;1.00
25328;DHT22;13279;51.300;12.394;2022-07-06T15:35:05;25.00;1.00
25328;DHT22;13279;51.300;12.394;2022-07-06T15:37:33;25.00;1.00
25328;DHT22;13279;51.300;12.394;2022-07-06T15:40:03;24.80;1.00
25328;DHT22;13279;51.300;12.394;2022-07-06T15:42:31;24.50;1.00
25328;DHT22;13279;51.300;12.394;2022-07-06T15:44:59;24.40;1.00
25328;DHT22;13279;51.300;12.394;2022-07-06T15:47:26;24.20;1.00
25328;DHT22;13279;51.300;12.394;2022-07-06T15:49:53;23.70;1.00
25328;DHT22;13279;51.300;12.394;2022-07-06T15:52:21;23.60;1.00
25328;DHT22;13279;51.300;12.394;2022-07-06T15:54:49;23.50;1.00
25328;DHT22;13279;51.300;12.394;2022-07-06T15:57:18;23.40;1.00
25328;DHT22;13279;51.300;12.394;2022-07-06T15:59:45;23.50;1.00
25328;DHT22;13279;51.300;12.394;2022-07-06T16:02:12;23.40;1.00
25328;DHT22;13279;51.300;12.394;2022-07-06T16:04:40;23.20;1.00
25328;DHT22;13279;51.300;12.394;2022-07-06T16:07:07;23.10;1.00
25328;DHT22;13279;51.300;12.394;2022-07-06T16:09:35;22.90;1.00
25328;DHT22;13279;51.300;12.394;2022-07-06T16:12:03;22.70;1.00
25328;DHT22;13279;51.300;12.394;2022-07-06T16:14:31;22.50;1.00
25328;DHT22;13279;51.300;12.394;2022-07-06T16:16:59;22.50;1.00
25328;DHT22;13279;51.300;12.394;2022-07-06T16:19:26;22.40;1.00
25328;DHT22;13279;51.300;12.394;2022-07-06T16:21:54;22.50;1.00
25328;DHT22;13279;51.300;12.394;2022-07-06T16:24:21;22.50;1.00
25328;DHT22;13279;51.300;12.394;2022-07-06T16:26:49;22.40;1.00
25328;DHT22;13279;51.300;12.394;2022-07-06T16:29:17;22.30;1.00
25328;DHT22;13279;51.300;12.394;2022-07-06T16:31:46;22.10;1.00
25328;DHT22;13279;51.300;12.394;2022-07-06T16:34:13;21.90;1.00
25328;DHT22;13279;51.300;12.394;2022-07-06T16:36:41;21.90;1.00
25328;DHT22;13279;51.300;12.394;2022-07-06T16:39:09;22.00;1.00
25328;DHT22;13279;51.300;12.394;2022-07-06T16:41:36;22.00;1.00
25328;DHT22;13279;51.300;12.394;2022-07-06T16:44:04;22.00;1.00
25328;DHT22;13279;51.300;12.394;2022-07-06T16:46:32;22.00;1.00
25328;DHT22;13279;51.300;12.394;2022-07-06T16:49:01;21.90;1.00
25328;DHT22;13279;51.300;12.394;2022-07-06T16:51:28;21.90;1.00
25328;DHT22;13279;51.300;12.394;2022-07-06T16:53:55;21.70;1.00
25328;DHT22;13279;51.300;12.394;2022-07-06T16:56:23;21.80;1.00
25328;DHT22;13279;51.300;12.394;2022-07-06T16:58:51;21.90;1.00
25328;DHT22;13279;51.300;12.394;2022-07-06T17:01:18;22.00;1.00
25328;DHT22;13279;51.300;12.394;2022-07-06T17:03:46;22.00;1.00
25328;DHT22;13279;51.300;12.394;2022-07-06T17:06:15;21.90;1.00
25328;DHT22;13279;51.300;12.394;2022-07-06T17:08:42;21.90;1.00
25328;DHT22;13279;51.300;12.394;2022-07-06T17:11:11;21.80;1.00
25328;DHT22;13279;51.300;12.394;2022-07-06T17:13:39;21.80;1.00
25328;DHT22;13279;51.300;12.394;2022-07-06T17:16:06;21.70;1.00
25328;DHT22;13279;51.300;12.394;2022-07-06T17:18:34;21.60;1.00
25328;DHT22;13279;51.300;12.394;2022-07-06T17:21:01;21.70;1.00
25328;DHT22;13279;51.300;12.394;2022-07-06T17:23:30;21.50;1.00
25328;DHT22;13279;51.300;12.394;2022-07-06T17:25:58;21.40;1.00
25328;DHT22;13279;51.300;12.394;2022-07-06T17:28:26;21.30;1.00
25328;DHT22;13279;51.300;12.394;2022-07-06T17:30:53;21.20;1.00
25328;DHT22;13279;51.300;12.394;2022-07-06T17:33:21;21.20;1.00
25328;DHT22;13279;51.300;12.394;2022-07-06T17:35:48;21.10;1.00
25328;DHT22;13279;51.300;12.394;2022-07-06T17:38:15;21.00;1.00
25328;DHT22;13279;51.300;12.394;2022-07-06T17:40:45;20.90;1.00
25328;DHT22;13279;51.300;12.394;2022-07-06T17:43:12;20.90;1.00
25328;DHT22;13279;51.300;12.394;2022-07-06T17:45:40;20.90;1.00
25328;DHT22;13279;51.300;12.394;2022-07-06T17:48:08;20.80;1.00
25328;DHT22;13279;51.300;12.394;2022-07-06T17:50:35;20.70;1.00
25328;DHT22;13279;51.300;12.394;2022-07-06T17:53:03;20.70;1.00
25328;DHT22;13279;51.300;12.394;2022-07-06T17:55:31;20.60;1.00
25328;DHT22;13279;51.300;12.394;2022-07-06T17:58:00;20.50;1.00
25328;DHT22;13279;51.300;12.394;2022-07-06T18:00:30;20.60;1.00
25328;DHT22;13279;51.300;12.394;2022-07-06T18:02:59;20.60;1.00
25328;DHT22;13279;51.300;12.394;2022-07-06T18:05:26;20.70;1.00
25328;DHT22;13279;51.300;12.394;2022-07-06T18:07:54;20.70;1.00
25328;DHT22;13279;51.300;12.394;2022-07-06T18:10:23;20.60;1.00
25328;DHT22;13279;51.300;12.394;2022-07-06T18:12:50;20.50;1.00
25328;DHT22;13279;51.300;12.394;2022-07-06T18:15:20;20.40;1.00
25328;DHT22;13279;51.300;12.394;2022-07-06T18:17:47;20.40;1.00
25328;DHT22;13279;51.300;12.394;2022-07-06T18:20:15;20.30;8.50
25328;DHT22;13279;51.300;12.394;2022-07-06T18:22:43;20.30;31.70
25328;DHT22;13279;51.300;12.394;2022-07-06T18:25:12;20.30;27.60
25328;DHT22;13279;51.300;12.394;2022-07-06T18:27:39;20.20;52.00
25328;DHT22;13279;51.300;12.394;2022-07-06T18:30:07;20.20;71.50
25328;DHT22;13279;51.300;12.394;2022-07-06T18:32:36;20.10;63.30
25328;DHT22;13279;51.300;12.394;2022-07-06T18:35:05;20.10;93.50
25328;DHT22;13279;51.300;12.394;2022-07-06T18:37:32;20.10;83.00
25328;DHT22;13279;51.300;12.394;2022-07-06T18:39:59;20.10;63.70
25328;DHT22;13279;51.300;12.394;2022-07-06T18:42:27;20.10;86.00
25328;DHT22;13279;51.300;12.394;2022-07-06T18:44:55;20.00;99.90
25328;DHT22;13279;51.300;12.394;2022-07-06T18:47:22;20.00;99.90
25328;DHT22;13279;51.300;12.394;2022-07-06T18:49:52;19.90;99.90
25328;DHT22;13279;51.300;12.394;2022-07-06T18:52:19;19.80;99.90
25328;DHT22;13279;51.300;12.394;2022-07-06T18:54:47;19.70;99.90
25328;DHT22;13279;51.300;12.394;2022-07-06T18:57:14;19.70;99.90